createdAt,value
2023-04-20T00:01:47.747Z,7.60
2023-04-20T00:04:15.622Z,7.60
2023-04-20T00:06:44.050Z,7.60
2023-04-20T00:09:12.189Z,7.60
2023-04-20T00:11:39.588Z,7.50
2023-04-20T00:14:07.573Z,7.50
2023-04-20T00:16:34.344Z,7.50
2023-04-20T00:19:01.510Z,7.50
2023-04-20T00:21:28.789Z,7.40
2023-04-20T00:23:55.940Z,7.40
2023-04-20T00:26:23.061Z,7.40
2023-04-20T00:28:53.378Z,7.30
2023-04-20T00:31:20.793Z,7.40
2023-04-20T00:33:48.386Z,7.30
2023-04-20T00:36:15.307Z,7.30
2023-04-20T00:38:42.262Z,7.30
2023-04-20T00:41:09.076Z,7.30
2023-04-20T00:43:36.040Z,7.40
2023-04-20T00:46:05.714Z,7.30
2023-04-20T00:48:32.465Z,7.30
2023-04-20T00:50:59.491Z,7.20
2023-04-20T00:53:26.683Z,7.20
2023-04-20T00:55:53.434Z,7.10
2023-04-20T00:58:20.511Z,7.10
2023-04-20T01:00:47.513Z,6.90
2023-04-20T01:03:14.677Z,6.90
2023-04-20T01:05:41.576Z,6.90
2023-04-20T01:08:08.869Z,6.90
2023-04-20T01:10:36.153Z,6.90
2023-04-20T01:13:03.747Z,6.90
2023-04-20T01:15:30.831Z,7.00
2023-04-20T01:17:58.060Z,6.90
2023-04-20T01:20:25.303Z,7.00
2023-04-20T01:22:56.505Z,7.00
2023-04-20T01:25:23.379Z,7.00
2023-04-20T01:27:50.694Z,7.00
2023-04-20T01:30:17.910Z,7.00
2023-04-20T01:32:44.810Z,6.90
2023-04-20T01:35:12.258Z,6.90
2023-04-20T01:37:39.728Z,6.80
2023-04-20T01:40:10.561Z,6.80
2023-04-20T01:42:37.406Z,6.90
2023-04-20T01:45:07.961Z,6.80
2023-04-20T01:47:35.960Z,6.80
2023-04-20T01:50:03.130Z,6.70
2023-04-20T01:52:30.022Z,6.70
2023-04-20T01:54:56.695Z,6.70
2023-04-20T01:57:25.139Z,6.60
2023-04-20T01:59:51.935Z,6.50
2023-04-20T02:02:19.497Z,6.30
2023-04-20T02:04:46.868Z,6.20
2023-04-20T02:07:13.583Z,6.10
2023-04-20T02:09:40.380Z,6.10
2023-04-20T02:12:07.626Z,6.00
2023-04-20T02:14:34.766Z,6.00
2023-04-20T02:17:02.492Z,6.00
2023-04-20T02:19:29.783Z,6.00
2023-04-20T02:21:57.153Z,6.00
2023-04-20T02:24:24.491Z,6.00
2023-04-20T02:26:52.328Z,6.10
2023-04-20T02:29:19.372Z,6.10
2023-04-20T02:31:47.449Z,6.20
2023-04-20T02:34:16.316Z,6.20
2023-04-20T02:36:43.544Z,6.00
2023-04-20T02:39:13.184Z,6.00
2023-04-20T02:41:40.153Z,5.90
2023-04-20T02:44:07.092Z,5.80
2023-04-20T02:46:36.961Z,5.60
2023-04-20T02:49:04.380Z,5.40
2023-04-20T02:51:35.989Z,5.10
2023-04-20T02:54:03.670Z,4.90
2023-04-20T02:56:31.651Z,4.90
2023-04-20T02:59:04.038Z,4.80
2023-04-20T03:01:51.235Z,4.70
2023-04-20T03:04:22.224Z,4.90
2023-04-20T03:06:58.766Z,4.90
2023-04-20T03:09:29.696Z,5.00
2023-04-20T03:12:06.907Z,5.00
2023-04-20T03:14:52.734Z,5.10
2023-04-20T03:17:25.182Z,5.10
2023-04-20T03:19:52.276Z,5.10
2023-04-20T03:22:19.376Z,4.70
2023-04-20T03:24:50.288Z,4.40
2023-04-20T03:27:33.770Z,4.40
2023-04-20T03:30:07.674Z,4.30
2023-04-20T03:32:34.556Z,4.30
2023-04-20T03:35:01.962Z,4.30
2023-04-20T03:37:28.826Z,4.30
2023-04-20T03:39:55.872Z,4.30
2023-04-20T03:42:23.072Z,4.20
2023-04-20T03:44:50.178Z,4.20
2023-04-20T03:47:17.744Z,4.10
2023-04-20T03:49:45.092Z,3.90
2023-04-20T03:52:12.461Z,3.80
2023-04-20T03:54:39.327Z,3.70
2023-04-20T03:57:06.690Z,3.60
2023-04-20T03:59:34.033Z,3.60
2023-04-20T04:02:05.917Z,3.50
2023-04-20T04:04:32.936Z,3.50
2023-04-20T04:07:00.658Z,3.40
2023-04-20T04:09:27.847Z,3.50
2023-04-20T04:11:54.671Z,3.60
2023-04-20T04:14:22.379Z,3.60
2023-04-20T04:16:49.436Z,3.60
2023-04-20T04:19:17.207Z,3.70
2023-04-20T04:21:44.462Z,3.80
2023-04-20T04:24:13.062Z,3.80
2023-04-20T04:26:52.333Z,3.90
2023-04-20T04:29:20.370Z,3.80
2023-04-20T04:31:47.658Z,3.80
2023-04-20T04:34:18.561Z,3.80
2023-04-20T04:36:50.181Z,3.60
2023-04-20T04:39:22.417Z,3.70
2023-04-20T04:41:57.946Z,3.70
2023-04-20T04:44:34.286Z,3.70
2023-04-20T04:47:05.669Z,3.60
2023-04-20T04:49:33.032Z,3.60
2023-04-20T04:52:00.017Z,3.50
2023-04-20T04:54:27.531Z,3.50
2023-04-20T04:56:54.274Z,3.60
2023-04-20T04:59:20.993Z,3.60
2023-04-20T05:01:48.135Z,3.50
2023-04-20T05:04:15.138Z,3.50
2023-04-20T05:06:41.960Z,3.50
2023-04-20T05:09:08.813Z,3.40
2023-04-20T05:11:35.742Z,3.40
2023-04-20T05:14:03.696Z,3.50
2023-04-20T05:16:30.775Z,3.50
2023-04-20T05:18:57.723Z,3.60
2023-04-20T05:21:24.852Z,3.70
2023-04-20T05:23:52.203Z,3.80
2023-04-20T05:26:19.518Z,3.90
2023-04-20T05:28:46.848Z,3.90
2023-04-20T05:31:13.655Z,3.90
2023-04-20T05:33:40.722Z,4.00
2023-04-20T05:36:10.931Z,4.00
2023-04-20T05:38:37.840Z,4.20
2023-04-20T05:41:04.816Z,4.20
2023-04-20T05:43:31.573Z,4.20
2023-04-20T05:45:58.772Z,4.20
2023-04-20T05:48:29.796Z,4.20
2023-04-20T05:50:58.387Z,4.20
2023-04-20T05:53:25.513Z,4.20
2023-04-20T05:55:52.565Z,4.30
2023-04-20T05:58:19.755Z,4.40
2023-04-20T06:00:46.678Z,4.50
2023-04-20T06:03:13.748Z,4.60
2023-04-20T06:05:41.049Z,4.60
2023-04-20T06:08:08.245Z,4.50
2023-04-20T06:10:35.790Z,4.60
2023-04-20T06:13:02.510Z,4.70
2023-04-20T06:15:29.585Z,4.80
2023-04-20T06:17:57.205Z,4.90
2023-04-20T06:20:24.786Z,5.00
2023-04-20T06:22:51.511Z,5.10
2023-04-20T06:25:18.279Z,5.30
2023-04-20T06:27:45.476Z,5.30
2023-04-20T06:30:12.685Z,5.40
2023-04-20T06:32:39.725Z,5.40
2023-04-20T06:35:07.277Z,5.40
2023-04-20T06:37:35.459Z,5.50
2023-04-20T06:40:05.529Z,5.60
2023-04-20T06:42:32.243Z,5.70
2023-04-20T06:44:59.421Z,5.80
2023-04-20T06:47:33.749Z,5.90
2023-04-20T06:50:01.468Z,5.90
2023-04-20T06:52:28.622Z,5.90
2023-04-20T06:54:56.053Z,6.10
2023-04-20T06:57:23.212Z,6.20
2023-04-20T06:59:50.095Z,6.40
2023-04-20T07:02:17.202Z,6.30
2023-04-20T07:04:44.081Z,6.40
2023-04-20T07:07:11.949Z,6.40
2023-04-20T07:09:39.412Z,6.30
2023-04-20T07:12:06.309Z,6.40
2023-04-20T07:14:33.118Z,6.40
2023-04-20T07:16:59.889Z,6.50
2023-04-20T07:19:26.577Z,6.50
2023-04-20T07:21:53.697Z,6.40
2023-04-20T07:24:20.642Z,6.40
2023-04-20T07:26:48.019Z,6.40
2023-04-20T07:29:15.335Z,6.30
2023-04-20T07:31:42.247Z,6.40
2023-04-20T07:34:09.076Z,6.50
2023-04-20T07:36:36.070Z,6.50
2023-04-20T07:39:03.112Z,6.30
2023-04-20T07:41:29.857Z,6.30
2023-04-20T07:43:56.560Z,6.30
2023-04-20T07:46:23.430Z,6.20
2023-04-20T07:48:50.585Z,6.20
2023-04-20T07:51:17.520Z,6.20
2023-04-20T07:53:44.459Z,6.10
2023-04-20T07:56:11.479Z,6.10
2023-04-20T07:58:40.444Z,6.10
2023-04-20T08:01:07.813Z,6.20
2023-04-20T08:03:35.587Z,6.30
2023-04-20T08:06:03.563Z,6.30
2023-04-20T08:08:31.080Z,6.10
2023-04-20T08:10:58.688Z,6.10
2023-04-20T08:13:26.047Z,6.20
2023-04-20T08:15:53.245Z,6.10
2023-04-20T08:18:21.393Z,6.10
2023-04-20T08:20:48.318Z,6.10
2023-04-20T08:23:15.105Z,6.20
2023-04-20T08:25:41.955Z,6.20
2023-04-20T08:28:11.984Z,6.30
2023-04-20T08:30:42.360Z,6.20
2023-04-20T08:33:09.201Z,6.20
2023-04-20T08:35:36.435Z,6.30
2023-04-20T08:38:03.445Z,6.20
2023-04-20T08:40:31.961Z,6.30
2023-04-20T08:43:01.871Z,6.40
2023-04-20T08:45:29.572Z,6.30
2023-04-20T08:47:58.408Z,6.20
2023-04-20T08:50:25.141Z,6.30
2023-04-20T08:52:51.907Z,6.30
2023-04-20T08:55:18.822Z,6.30
2023-04-20T08:57:47.298Z,6.20
2023-04-20T09:00:16.049Z,6.30
2023-04-20T09:02:50.827Z,6.30
2023-04-20T09:05:26.758Z,6.30
2023-04-20T09:07:58.111Z,6.40
2023-04-20T09:10:25.596Z,6.40
2023-04-20T09:12:52.972Z,6.40
2023-04-20T09:15:30.377Z,6.40
2023-04-20T09:17:57.609Z,6.40
2023-04-20T09:20:32.253Z,6.60
2023-04-20T09:23:10.848Z,6.60
2023-04-20T09:25:37.738Z,6.60
2023-04-20T09:28:04.879Z,6.70
2023-04-20T09:30:39.571Z,6.80
2023-04-20T09:33:08.394Z,6.80
2023-04-20T09:35:36.414Z,6.70
2023-04-20T09:38:04.122Z,6.50
2023-04-20T09:40:30.945Z,6.40
2023-04-20T09:43:01.101Z,6.40
2023-04-20T09:45:28.869Z,6.40
2023-04-20T09:47:56.174Z,6.50
2023-04-20T09:50:29.038Z,6.40
2023-04-20T09:52:59.072Z,6.40
2023-04-20T09:55:26.588Z,6.40
2023-04-20T09:57:54.555Z,6.50
2023-04-20T10:00:27.217Z,6.50
2023-04-20T10:02:58.069Z,6.40
2023-04-20T10:05:37.229Z,6.30
2023-04-20T10:08:04.275Z,6.10
2023-04-20T10:10:31.151Z,6.20
2023-04-20T10:13:03.261Z,6.30
2023-04-20T10:15:37.609Z,6.30
2023-04-20T10:18:22.253Z,6.20
2023-04-20T10:20:49.694Z,6.10
2023-04-20T10:23:18.547Z,6.10
2023-04-20T10:26:02.287Z,5.90
2023-04-20T10:28:39.828Z,6.00
2023-04-20T10:31:17.233Z,6.00
2023-04-20T10:33:51.671Z,6.00
2023-04-20T10:36:32.396Z,5.70
2023-04-20T10:39:03.279Z,5.80
2023-04-20T10:41:30.048Z,5.90
2023-04-20T10:44:09.340Z,6.00
2023-04-20T10:46:38.930Z,6.00
2023-04-20T10:49:05.665Z,6.20
2023-04-20T10:51:35.770Z,6.10
2023-04-20T10:54:05.897Z,6.20
2023-04-20T10:56:42.890Z,6.10
2023-04-20T10:59:11.283Z,6.10
2023-04-20T11:01:38.698Z,6.00
2023-04-20T11:04:05.624Z,6.20
2023-04-20T11:06:32.735Z,6.50
2023-04-20T11:08:59.502Z,6.40
2023-04-20T11:11:30.220Z,6.60
2023-04-20T11:14:10.572Z,6.60
2023-04-20T11:16:49.718Z,6.60
2023-04-20T11:19:30.527Z,6.50
2023-04-20T11:21:57.943Z,6.70
2023-04-20T11:24:25.930Z,6.70
2023-04-20T11:26:54.579Z,6.80
2023-04-20T11:29:40.008Z,6.90
2023-04-20T11:32:10.525Z,7.00
2023-04-20T11:34:38.575Z,7.00
2023-04-20T11:37:10.751Z,6.70
2023-04-20T11:39:38.891Z,6.50
2023-04-20T11:42:06.206Z,6.70
2023-04-20T11:44:34.147Z,6.90
2023-04-20T11:47:01.860Z,6.90
2023-04-20T11:49:29.286Z,7.30
2023-04-20T11:51:56.465Z,7.40
2023-04-20T11:54:24.316Z,7.50
2023-04-20T11:56:51.470Z,7.50
2023-04-20T11:59:20.528Z,7.70
2023-04-20T12:01:48.471Z,8.00
2023-04-20T12:04:16.393Z,8.50
2023-04-20T12:06:44.073Z,9.00
2023-04-20T12:09:10.925Z,9.20
2023-04-20T12:11:37.934Z,9.20
2023-04-20T12:14:05.327Z,8.80
2023-04-20T12:16:32.474Z,8.40
2023-04-20T12:18:59.290Z,8.50
2023-04-20T12:21:27.374Z,8.70
2023-04-20T12:23:55.033Z,8.70
2023-04-20T12:26:27.066Z,8.80
2023-04-20T12:29:02.372Z,9.30
2023-04-20T12:31:29.409Z,9.70
2023-04-20T12:33:56.495Z,9.30
2023-04-20T12:36:23.213Z,9.40
2023-04-20T12:38:53.944Z,9.60
2023-04-20T12:41:23.231Z,9.60
2023-04-20T12:43:51.242Z,9.70
2023-04-20T12:46:18.082Z,9.50
2023-04-20T12:48:46.190Z,9.70
2023-04-20T12:51:13.669Z,9.90
2023-04-20T12:53:40.591Z,9.80
2023-04-20T12:56:07.710Z,9.50
2023-04-20T12:58:34.645Z,9.40
2023-04-20T13:01:02.726Z,9.40
2023-04-20T13:03:29.705Z,9.30
2023-04-20T13:05:56.585Z,9.40
2023-04-20T13:08:23.355Z,9.50
2023-04-20T13:10:50.413Z,9.50
2023-04-20T13:13:17.410Z,9.50
2023-04-20T13:15:44.234Z,9.60
2023-04-20T13:18:11.248Z,9.70
2023-04-20T13:20:38.006Z,9.50
2023-04-20T13:23:05.806Z,9.20
2023-04-20T13:25:33.357Z,9.10
2023-04-20T13:28:01.345Z,9.00
2023-04-20T13:30:28.597Z,9.10
2023-04-20T13:32:55.732Z,9.10
2023-04-20T13:35:22.937Z,9.30
2023-04-20T13:37:49.661Z,9.50
2023-04-20T13:40:17.044Z,9.20
2023-04-20T13:42:43.882Z,9.00
2023-04-20T13:45:10.893Z,9.20
2023-04-20T13:47:38.902Z,9.40
2023-04-20T13:50:07.147Z,9.60
2023-04-20T13:52:33.967Z,9.80
2023-04-20T13:55:00.762Z,9.70
2023-04-20T13:57:27.495Z,9.70
2023-04-20T13:59:54.228Z,9.80
2023-04-20T14:02:22.972Z,9.70
2023-04-20T14:04:49.936Z,9.60
2023-04-20T14:07:18.237Z,9.50
2023-04-20T14:09:44.983Z,9.40
2023-04-20T14:12:12.588Z,9.50
2023-04-20T14:14:39.890Z,9.70
2023-04-20T14:17:06.667Z,9.80
2023-04-20T14:19:33.667Z,9.90
2023-04-20T14:22:00.649Z,10.00
2023-04-20T14:24:27.674Z,10.10
2023-04-20T14:26:54.532Z,10.20
2023-04-20T14:29:21.448Z,10.20
2023-04-20T14:31:48.846Z,10.10
2023-04-20T14:34:16.503Z,10.00
2023-04-20T14:36:43.878Z,10.00
2023-04-20T14:39:10.867Z,10.00
2023-04-20T14:41:37.530Z,9.60
2023-04-20T14:44:05.160Z,9.60
2023-04-20T14:46:31.907Z,9.80
2023-04-20T14:48:59.262Z,9.80
2023-04-20T14:51:27.295Z,9.80
2023-04-20T14:53:54.689Z,9.90
2023-04-20T14:56:21.600Z,9.90
2023-04-20T14:58:48.438Z,10.00
2023-04-20T15:01:15.643Z,10.00
2023-04-20T15:03:43.177Z,10.00
2023-04-20T15:06:11.453Z,10.00
2023-04-20T15:08:43.117Z,10.00
2023-04-20T15:11:11.145Z,10.00
2023-04-20T15:13:41.078Z,10.00
2023-04-20T15:16:08.677Z,10.10
2023-04-20T15:18:35.840Z,10.30
2023-04-20T15:21:03.115Z,10.30
2023-04-20T15:23:30.203Z,10.20
2023-04-20T15:25:57.858Z,10.30
2023-04-20T15:28:25.487Z,10.30
2023-04-20T15:30:52.444Z,10.30
2023-04-20T15:33:19.258Z,10.40
2023-04-20T15:35:46.654Z,10.60
2023-04-20T15:38:13.970Z,10.50
2023-04-20T15:40:41.510Z,10.60
2023-04-20T15:43:08.416Z,10.50
2023-04-20T15:45:36.001Z,10.10
2023-04-20T15:48:03.640Z,9.10
2023-04-20T15:50:30.712Z,8.30
2023-04-20T15:52:57.745Z,7.90
2023-04-20T15:55:24.910Z,7.70
2023-04-20T15:57:56.975Z,7.60
2023-04-20T16:00:24.590Z,7.60
2023-04-20T16:02:53.519Z,7.60
2023-04-20T16:05:21.831Z,7.60
2023-04-20T16:07:48.832Z,7.60
2023-04-20T16:10:15.519Z,7.70
2023-04-20T16:12:42.225Z,7.70
2023-04-20T16:15:09.852Z,7.70
2023-04-20T16:17:37.221Z,7.70
2023-04-20T16:20:05.272Z,7.70
2023-04-20T16:22:33.049Z,7.70
2023-04-20T16:25:01.247Z,7.30
2023-04-20T16:27:27.993Z,7.10
2023-04-20T16:29:55.472Z,7.00
2023-04-20T16:32:22.991Z,6.80
2023-04-20T16:34:50.488Z,6.70
2023-04-20T16:37:17.628Z,6.40
2023-04-20T16:39:45.091Z,6.30
2023-04-20T16:42:12.081Z,6.30
2023-04-20T16:44:41.849Z,6.20
2023-04-20T16:47:08.849Z,6.30
2023-04-20T16:49:35.806Z,6.20
2023-04-20T16:52:02.645Z,6.20
2023-04-20T16:54:29.467Z,6.20
2023-04-20T16:56:57.334Z,6.10
2023-04-20T16:59:24.679Z,6.10
2023-04-20T17:01:52.942Z,6.10
2023-04-20T17:04:20.082Z,6.20
2023-04-20T17:06:48.817Z,6.30
2023-04-20T17:09:16.773Z,6.30
2023-04-20T17:11:44.061Z,6.40
2023-04-20T17:14:11.009Z,6.40
2023-04-20T17:16:39.644Z,6.50
2023-04-20T17:19:09.729Z,6.50
2023-04-20T17:21:36.778Z,6.60
2023-04-20T17:24:04.110Z,6.60
2023-04-20T17:26:31.311Z,6.60
2023-04-20T17:28:59.574Z,6.60
2023-04-20T17:31:26.544Z,6.60
2023-04-20T17:33:53.939Z,6.70
2023-04-20T17:36:20.826Z,6.70
2023-04-20T17:38:47.947Z,6.70
2023-04-20T17:41:14.661Z,6.60
2023-04-20T17:43:42.008Z,6.60
2023-04-20T17:46:09.238Z,6.70
2023-04-20T17:48:35.996Z,6.70
2023-04-20T17:51:02.733Z,6.70
2023-04-20T17:53:30.158Z,6.70
2023-04-20T17:55:57.101Z,6.60
2023-04-20T17:58:25.244Z,6.60
2023-04-20T18:00:52.558Z,6.60
2023-04-20T18:03:20.489Z,6.70
2023-04-20T18:05:48.143Z,6.60
2023-04-20T18:08:17.901Z,6.70
2023-04-20T18:10:45.244Z,6.60
2023-04-20T18:13:12.115Z,6.60
2023-04-20T18:15:39.097Z,6.70
2023-04-20T18:18:05.870Z,6.70
2023-04-20T18:20:33.089Z,6.70
2023-04-20T18:22:59.798Z,6.70
2023-04-20T18:25:26.979Z,6.70
2023-04-20T18:27:53.772Z,6.70
2023-04-20T18:30:21.729Z,6.70
2023-04-20T18:32:49.222Z,6.60
2023-04-20T18:35:16.491Z,6.70
2023-04-20T18:37:43.897Z,6.70
2023-04-20T18:40:13.064Z,6.70
2023-04-20T18:42:40.936Z,6.60
2023-04-20T18:45:08.573Z,6.70
2023-04-20T18:47:35.671Z,6.60
2023-04-20T18:50:03.084Z,6.60
2023-04-20T18:52:32.716Z,6.60
2023-04-20T18:54:59.801Z,6.60
2023-04-20T18:57:28.922Z,6.60
2023-04-20T18:59:56.577Z,6.60
2023-04-20T19:02:24.043Z,6.60
2023-04-20T19:04:51.086Z,6.50
2023-04-20T19:07:18.547Z,6.50
2023-04-20T19:09:45.310Z,6.50
2023-04-20T19:12:12.361Z,6.50
2023-04-20T19:14:39.645Z,6.40
2023-04-20T19:17:07.091Z,6.40
2023-04-20T19:19:34.323Z,6.40
2023-04-20T19:22:02.874Z,6.30
2023-04-20T19:24:32.122Z,6.30
2023-04-20T19:26:59.347Z,6.30
2023-04-20T19:29:26.822Z,6.30
2023-04-20T19:31:53.841Z,6.30
2023-04-20T19:34:21.280Z,6.30
2023-04-20T19:36:48.678Z,6.30
2023-04-20T19:39:15.510Z,6.20
2023-04-20T19:41:42.613Z,6.20
2023-04-20T19:44:12.045Z,6.30
2023-04-20T19:46:40.556Z,6.30
2023-04-20T19:49:07.506Z,6.20
2023-04-20T19:51:34.637Z,6.20
2023-04-20T19:54:03.799Z,6.20
2023-04-20T19:56:31.287Z,6.30
2023-04-20T19:58:58.512Z,6.30
2023-04-20T20:01:25.441Z,6.30
2023-04-20T20:03:52.519Z,6.30
2023-04-20T20:06:19.576Z,6.30
2023-04-20T20:08:46.753Z,6.30
2023-04-20T20:11:13.794Z,6.20
2023-04-20T20:13:40.934Z,6.20
2023-04-20T20:16:10.165Z,6.30
2023-04-20T20:18:37.288Z,6.30
2023-04-20T20:21:04.577Z,6.30
2023-04-20T20:23:31.352Z,6.30
2023-04-20T20:25:58.082Z,6.30
2023-04-20T20:28:25.153Z,6.30
2023-04-20T20:30:51.925Z,6.40
2023-04-20T20:33:18.905Z,6.40
2023-04-20T20:35:45.660Z,6.40
2023-04-20T20:38:12.889Z,6.40
2023-04-20T20:40:40.383Z,6.40
2023-04-20T20:43:07.545Z,6.50
2023-04-20T20:45:34.907Z,6.50
2023-04-20T20:48:02.140Z,6.50
2023-04-20T20:50:29.513Z,6.40
2023-04-20T20:52:56.382Z,6.40
2023-04-20T20:55:24.353Z,6.40
2023-04-20T20:57:51.642Z,6.40
2023-04-20T21:00:18.805Z,6.50
2023-04-20T21:02:46.144Z,6.40
2023-04-20T21:05:13.587Z,6.40
2023-04-20T21:07:40.706Z,6.40
2023-04-20T21:10:09.006Z,6.40
2023-04-20T21:12:35.988Z,6.40
2023-04-20T21:15:03.004Z,6.50
2023-04-20T21:17:30.436Z,6.50
2023-04-20T21:19:57.785Z,6.40
2023-04-20T21:22:24.553Z,6.30
2023-04-20T21:24:51.549Z,6.30
2023-04-20T21:27:19.242Z,6.30
2023-04-20T21:29:46.373Z,6.30
2023-04-20T21:32:13.102Z,6.30
2023-04-20T21:34:40.474Z,6.30
2023-04-20T21:37:07.199Z,6.30
2023-04-20T21:39:34.270Z,6.20
2023-04-20T21:42:03.173Z,6.20
2023-04-20T21:44:30.061Z,6.20
2023-04-20T21:46:57.564Z,6.10
2023-04-20T21:49:24.472Z,6.10
2023-04-20T21:51:51.851Z,6.10
2023-04-20T21:54:18.641Z,6.00
2023-04-20T21:56:46.717Z,5.90
2023-04-20T21:59:14.689Z,6.00
2023-04-20T22:01:42.260Z,6.00
2023-04-20T22:04:09.816Z,5.90
2023-04-20T22:06:36.725Z,5.90
2023-04-20T22:09:04.711Z,5.90
2023-04-20T22:11:32.054Z,5.90
2023-04-20T22:13:59.305Z,5.90
2023-04-20T22:16:28.426Z,5.80
2023-04-20T22:18:55.651Z,5.90
2023-04-20T22:21:22.716Z,5.80
2023-04-20T22:23:49.638Z,5.80
2023-04-20T22:26:16.933Z,5.70
2023-04-20T22:28:44.277Z,5.80
2023-04-20T22:31:11.370Z,5.80
2023-04-20T22:33:38.366Z,5.70
2023-04-20T22:36:06.855Z,5.70
2023-04-20T22:38:36.893Z,5.70
2023-04-20T22:41:03.774Z,5.80
2023-04-20T22:43:30.716Z,5.80
2023-04-20T22:45:58.716Z,5.80
2023-04-20T22:48:26.113Z,5.80
2023-04-20T22:50:53.702Z,5.80
2023-04-20T22:53:21.557Z,5.80
2023-04-20T22:55:48.450Z,5.80
2023-04-20T22:58:15.395Z,5.80
2023-04-20T23:00:42.247Z,5.80
2023-04-20T23:03:09.352Z,5.80
2023-04-20T23:05:36.721Z,5.70
2023-04-20T23:08:03.875Z,5.70
2023-04-20T23:10:30.824Z,5.70
2023-04-20T23:12:57.834Z,5.80
2023-04-20T23:15:24.669Z,5.80
2023-04-20T23:17:52.683Z,5.90
2023-04-20T23:20:19.799Z,5.90
2023-04-20T23:22:46.976Z,5.80
2023-04-20T23:25:14.294Z,5.80
2023-04-20T23:27:41.211Z,5.90
2023-04-20T23:30:10.397Z,5.90
2023-04-20T23:32:38.163Z,5.90
2023-04-20T23:35:06.487Z,5.90
2023-04-20T23:37:33.515Z,5.90
2023-04-20T23:40:02.891Z,5.90
2023-04-20T23:42:30.137Z,5.90
2023-04-20T23:44:58.615Z,5.90
2023-04-20T23:47:26.053Z,5.90
2023-04-20T23:49:53.025Z,5.90
2023-04-20T23:52:19.733Z,5.80
2023-04-20T23:54:47.341Z,5.80
2023-04-20T23:57:14.112Z,5.80
2023-04-20T23:59:41.293Z,5.70
